Terminal Aerodrome Forecast
Issued by NWS

Home | Current Version | Previous Version | Text Only | Print | Product List | Glossary On
Versions: 1 2 3 4 5 6 7 8 9 10 11 12 13 14
000
FTUS46 KMTR 041136
TAFOAK
TAF
KOAK 041136Z 0412/0518 28008KT P6SM FEW013 BKN180
      TEMPO 0412/0416 BKN015
     FM042000 27015KT P6SM FEW015 SCT180
     FM050500 27011KT P6SM OVC012
     FM051000 27008KT P6SM OVC008=

USA.gov is the U.S. government's official web portal to all federal, state and local government web resources and services.